CheckWX is a tool to help pilots better visualize weather data.  It is not intended as a substitute for an official pre-flight weather briefing.

18:36:15 UTC

EGJJ METAR
Jersey Airport
Saint Helier, Jersey
Current

16 mins ago

EGJJ 201820Z 31007KT CAVOK 17/11 Q1027
Observed
Aug-20 @ 18:20 UTC
Wind
  • 310° at 7 KTS
Visibility
10,000+ meters
Flight Rules
VFR
Cloud Levels
  • Clear skies
Temperature
17°C / 63°F
Dewpoint
11°C / 52°F
Humidity
68%
Altimeter
30.32" Hg
Pressure
1026.92 hPa
Previous

46 mins ago

EGJJ 201750Z 30008KT CAVOK 17/11 Q1027
Observed
Aug-20 @ 17:50 UTC
Wind
  • 300° at 8 KTS
Visibility
10,000+ meters
Flight Rules
VFR
Cloud Levels
  • Clear skies
Temperature
17°C / 63°F
Dewpoint
11°C / 52°F
Humidity
68%
Altimeter
30.32" Hg
Pressure
1026.92 hPa
Previous

1 hour ago

EGJJ 201720Z 29009KT 9999 FEW023 17/12 Q1027
Observed
Aug-20 @ 17:20 UTC
Wind
  • 290° at 9 KTS
Visibility
10,000+ meters
Flight Rules
VFR
Cloud Levels
  • Few at 2,300' AGL
Temperature
17°C / 63°F
Dewpoint
12°C / 54°F
Humidity
73%
Altimeter
30.32" Hg
Pressure
1026.92 hPa